sensor_id;sensor_type;location;lat;lon;timestamp;P1;durP1;ratioP1;P2;durP2;ratioP2
75941;SDS011;64622;46.220;19.878;2024-03-17T00:01:03;55.63;;;25.20;;
75941;SDS011;64622;46.220;19.878;2024-03-17T00:03:30;62.65;;;25.25;;
75941;SDS011;64622;46.220;19.878;2024-03-17T00:05:58;52.67;;;23.55;;
75941;SDS011;64622;46.220;19.878;2024-03-17T00:08:25;51.58;;;23.08;;
75941;SDS011;64622;46.220;19.878;2024-03-17T00:10:53;46.08;;;21.70;;
75941;SDS011;64622;46.220;19.878;2024-03-17T00:13:23;46.53;;;21.83;;
75941;SDS011;64622;46.220;19.878;2024-03-17T00:15:50;50.00;;;22.23;;
75941;SDS011;64622;46.220;19.878;2024-03-17T00:18:17;52.72;;;21.45;;
75941;SDS011;64622;46.220;19.878;2024-03-17T00:20:44;48.53;;;19.83;;
75941;SDS011;64622;46.220;19.878;2024-03-17T00:23:11;39.90;;;19.58;;
75941;SDS011;64622;46.220;19.878;2024-03-17T00:25:38;43.87;;;18.63;;
75941;SDS011;64622;46.220;19.878;2024-03-17T00:28:05;38.20;;;16.48;;
75941;SDS011;64622;46.220;19.878;2024-03-17T00:30:32;39.75;;;17.70;;
75941;SDS011;64622;46.220;19.878;2024-03-17T00:32:59;33.38;;;16.00;;
75941;SDS011;64622;46.220;19.878;2024-03-17T00:35:26;37.03;;;15.05;;
75941;SDS011;64622;46.220;19.878;2024-03-17T00:37:52;32.63;;;14.00;;
75941;SDS011;64622;46.220;19.878;2024-03-17T00:40:20;27.80;;;11.40;;
75941;SDS011;64622;46.220;19.878;2024-03-17T00:42:47;29.25;;;13.27;;
75941;SDS011;64622;46.220;19.878;2024-03-17T00:45:13;29.55;;;12.68;;
75941;SDS011;64622;46.220;19.878;2024-03-17T00:47:41;22.70;;;11.43;;
75941;SDS011;64622;46.220;19.878;2024-03-17T00:50:08;23.67;;;11.00;;
75941;SDS011;64622;46.220;19.878;2024-03-17T00:52:37;21.05;;;9.93;;
75941;SDS011;64622;46.220;19.878;2024-03-17T00:55:05;26.15;;;11.18;;
75941;SDS011;64622;46.220;19.878;2024-03-17T00:57:32;26.20;;;12.37;;
75941;SDS011;64622;46.220;19.878;2024-03-17T00:59:59;23.90;;;11.30;;
75941;SDS011;64622;46.220;19.878;2024-03-17T01:02:26;25.80;;;12.00;;
75941;SDS011;64622;46.220;19.878;2024-03-17T01:04:52;23.10;;;11.95;;
75941;SDS011;64622;46.220;19.878;2024-03-17T01:07:19;24.83;;;11.48;;
75941;SDS011;64622;46.220;19.878;2024-03-17T01:09:46;24.80;;;11.48;;
75941;SDS011;64622;46.220;19.878;2024-03-17T01:12:14;26.65;;;13.35;;
75941;SDS011;64622;46.220;19.878;2024-03-17T01:14:41;23.67;;;12.23;;
75941;SDS011;64622;46.220;19.878;2024-03-17T01:17:07;25.67;;;12.32;;
75941;SDS011;64622;46.220;19.878;2024-03-17T01:19:34;23.25;;;10.98;;
75941;SDS011;64622;46.220;19.878;2024-03-17T01:22:01;23.17;;;11.85;;
75941;SDS011;64622;46.220;19.878;2024-03-17T01:24:28;22.17;;;10.23;;
75941;SDS011;64622;46.220;19.878;2024-03-17T01:26:59;24.87;;;12.68;;
75941;SDS011;64622;46.220;19.878;2024-03-17T01:29:27;23.92;;;11.60;;
75941;SDS011;64622;46.220;19.878;2024-03-17T01:31:54;23.67;;;11.43;;
75941;SDS011;64622;46.220;19.878;2024-03-17T01:34:21;22.87;;;11.38;;
75941;SDS011;64622;46.220;19.878;2024-03-17T01:36:48;22.65;;;10.45;;
75941;SDS011;64622;46.220;19.878;2024-03-17T01:39:15;20.02;;;10.50;;
75941;SDS011;64622;46.220;19.878;2024-03-17T01:41:43;19.95;;;9.73;;
